sensor_id;sensor_type;location;lat;lon;timestamp;P1;durP1;ratioP1;P2;durP2;ratioP2
8319;SDS011;4197;42.130;24.746;2023-11-19T00:00:56;2.00;;;1.60;;
8319;SDS011;4197;42.130;24.746;2023-11-19T00:03:24;1.83;;;1.67;;
8319;SDS011;4197;42.130;24.746;2023-11-19T00:05:53;2.13;;;1.67;;
8319;SDS011;4197;42.130;24.746;2023-11-19T00:08:22;1.90;;;1.80;;
8319;SDS011;4197;42.130;24.746;2023-11-19T00:10:52;3.63;;;1.80;;
8319;SDS011;4197;42.130;24.746;2023-11-19T00:13:21;1.73;;;1.63;;
8319;SDS011;4197;42.130;24.746;2023-11-19T00:15:49;1.90;;;1.70;;
8319;SDS011;4197;42.130;24.746;2023-11-19T00:18:18;1.53;;;1.43;;
8319;SDS011;4197;42.130;24.746;2023-11-19T00:20:47;1.93;;;1.83;;
8319;SDS011;4197;42.130;24.746;2023-11-19T00:23:15;2.10;;;1.97;;
8319;SDS011;4197;42.130;24.746;2023-11-19T00:25:45;1.90;;;1.80;;
8319;SDS011;4197;42.130;24.746;2023-11-19T00:28:16;1.60;;;1.50;;
8319;SDS011;4197;42.130;24.746;2023-11-19T00:30:44;1.80;;;1.50;;
8319;SDS011;4197;42.130;24.746;2023-11-19T00:33:12;1.90;;;1.70;;
8319;SDS011;4197;42.130;24.746;2023-11-19T00:35:41;1.83;;;1.60;;
8319;SDS011;4197;42.130;24.746;2023-11-19T00:38:10;2.13;;;1.93;;
8319;SDS011;4197;42.130;24.746;2023-11-19T00:40:39;1.70;;;1.43;;
8319;SDS011;4197;42.130;24.746;2023-11-19T00:43:08;3.30;;;1.97;;
8319;SDS011;4197;42.130;24.746;2023-11-19T00:45:37;2.00;;;1.80;;
8319;SDS011;4197;42.130;24.746;2023-11-19T00:48:05;1.70;;;1.60;;
8319;SDS011;4197;42.130;24.746;2023-11-19T00:50:34;1.83;;;1.73;;
8319;SDS011;4197;42.130;24.746;2023-11-19T00:53:04;1.80;;;1.70;;
8319;SDS011;4197;42.130;24.746;2023-11-19T00:55:32;2.10;;;1.90;;
8319;SDS011;4197;42.130;24.746;2023-11-19T00:58:12;2.00;;;1.70;;
8319;SDS011;4197;42.130;24.746;2023-11-19T01:00:42;1.83;;;1.73;;
8319;SDS011;4197;42.130;24.746;2023-11-19T01:03:11;2.03;;;1.83;;
8319;SDS011;4197;42.130;24.746;2023-11-19T01:05:39;2.73;;;1.97;;
8319;SDS011;4197;42.130;24.746;2023-11-19T01:08:09;1.97;;;1.77;;
8319;SDS011;4197;42.130;24.746;2023-11-19T01:10:37;2.20;;;1.80;;
8319;SDS011;4197;42.130;24.746;2023-11-19T01:13:05;1.60;;;1.50;;
8319;SDS011;4197;42.130;24.746;2023-11-19T01:15:34;2.43;;;2.20;;
8319;SDS011;4197;42.130;24.746;2023-11-19T01:18:04;1.80;;;1.70;;
8319;SDS011;4197;42.130;24.746;2023-11-19T01:20:32;1.80;;;1.70;;
8319;SDS011;4197;42.130;24.746;2023-11-19T01:23:01;2.10;;;1.83;;
8319;SDS011;4197;42.130;24.746;2023-11-19T01:25:29;1.83;;;1.73;;
8319;SDS011;4197;42.130;24.746;2023-11-19T01:27:58;1.90;;;1.60;;
8319;SDS011;4197;42.130;24.746;2023-11-19T01:30:26;2.37;;;2.10;;
8319;SDS011;4197;42.130;24.746;2023-11-19T01:32:54;2.43;;;2.00;;
8319;SDS011;4197;42.130;24.746;2023-11-19T01:35:24;2.17;;;1.70;;
8319;SDS011;4197;42.130;24.746;2023-11-19T01:37:53;3.03;;;1.93;;
8319;SDS011;4197;42.130;24.746;2023-11-19T01:40:21;1.83;;;1.73;;
8319;SDS011;4197;42.130;24.746;2023-11-19T01:42:50;2.03;;;1.90;;
8319;SDS011;4197;42.130;24.746;2023-11-19T01:45:22;1.80;;;1.43;;
8319;SDS011;4197;42.130;24.746;2023-11-19T01:47:56;4.17;;;1.77;;
8319;SDS011;4197;42.130;24.746;2023-11-19T01:50:26;2.30;;;1.90;;
8319;SDS011;4197;42.130;24.746;2023-11-19T01:52:55;2.00;;;1.90;;
8319;SDS011;4197;42.130;24.746;2023-11-19T01:55:25;1.97;;;1.77;;
8319;SDS011;4197;42.130;24.746;2023-11-19T01:57:57;1.90;;;1.70;;
8319;SDS011;4197;42.130;24.746;2023-11-19T02:00:29;2.33;;;2.07;;
8319;SDS011;4197;42.130;24.746;2023-11-19T02:03:01;1.80;;;1.70;;
8319;SDS011;4197;42.130;24.746;2023-11-19T02:05:32;2.30;;;2.10;;
8319;SDS011;4197;42.130;24.746;2023-11-19T02:08:00;2.10;;;1.90;;
8319;SDS011;4197;42.130;24.746;2023-11-19T02:10:29;2.50;;;2.17;;
8319;SDS011;4197;42.130;24.746;2023-11-19T02:12:58;2.40;;;1.93;;
8319;SDS011;4197;42.130;24.746;2023-11-19T02:15:30;1.93;;;1.60;;
8319;SDS011;4197;42.130;24.746;2023-11-19T02:20:52;1.97;;;1.77;;
8319;SDS011;4197;42.130;24.746;2023-11-19T02:23:21;2.03;;;1.73;;
8319;SDS011;4197;42.130;24.746;2023-11-19T02:25:53;1.73;;;1.63;;
8319;SDS011;4197;42.130;24.746;2023-11-19T02:28:29;2.00;;;1.80;;
8319;SDS011;4197;42.130;24.746;2023-11-19T02:30:59;2.27;;;2.03;;
8319;SDS011;4197;42.130;24.746;2023-11-19T02:33:27;2.47;;;2.20;;
8319;SDS011;4197;42.130;24.746;2023-11-19T02:35:55;2.20;;;2.00;;
8319;SDS011;4197;42.130;24.746;2023-11-19T02:38:24;2.67;;;2.20;;
8319;SDS011;4197;42.130;24.746;2023-11-19T02:40:52;2.40;;;2.20;;
8319;SDS011;4197;42.130;24.746;2023-11-19T02:43:20;2.53;;;2.33;;
8319;SDS011;4197;42.130;24.746;2023-11-19T02:45:50;2.60;;;2.40;;
8319;SDS011;4197;42.130;24.746;2023-11-19T02:48:22;3.07;;;2.77;;
8319;SDS011;4197;42.130;24.746;2023-11-19T02:50:50;2.47;;;2.27;;
8319;SDS011;4197;42.130;24.746;2023-11-19T02:53:19;2.60;;;2.23;;
8319;SDS011;4197;42.130;24.746;2023-11-19T02:55:48;6.30;;;2.40;;
8319;SDS011;4197;42.130;24.746;2023-11-19T02:58:18;3.40;;;3.10;;
8319;SDS011;4197;42.130;24.746;2023-11-19T03:00:52;2.40;;;2.20;;
8319;SDS011;4197;42.130;24.746;2023-11-19T03:03:24;2.87;;;2.67;;
8319;SDS011;4197;42.130;24.746;2023-11-19T03:06:05;2.53;;;2.33;;
8319;SDS011;4197;42.130;24.746;2023-11-19T03:08:34;3.20;;;2.90;;
8319;SDS011;4197;42.130;24.746;2023-11-19T03:11:03;2.53;;;2.33;;
8319;SDS011;4197;42.130;24.746;2023-11-19T03:13:32;2.33;;;2.13;;
8319;SDS011;4197;42.130;24.746;2023-11-19T03:16:02;3.10;;;2.80;;
8319;SDS011;4197;42.130;24.746;2023-11-19T03:18:30;2.37;;;2.13;;
8319;SDS011;4197;42.130;24.746;2023-11-19T03:20:59;2.73;;;2.53;;
8319;SDS011;4197;42.130;24.746;2023-11-19T03:23:27;3.07;;;2.77;;
8319;SDS011;4197;42.130;24.746;2023-11-19T03:25:56;2.63;;;2.40;;
8319;SDS011;4197;42.130;24.746;2023-11-19T03:28:24;2.60;;;2.40;;
8319;SDS011;4197;42.130;24.746;2023-11-19T03:30:53;3.13;;;2.83;;
8319;SDS011;4197;42.130;24.746;2023-11-19T03:33:23;2.73;;;2.20;;
8319;SDS011;4197;42.130;24.746;2023-11-19T03:35:52;2.93;;;2.63;;
8319;SDS011;4197;42.130;24.746;2023-11-19T03:38:20;3.27;;;2.43;;
8319;SDS011;4197;42.130;24.746;2023-11-19T03:40:49;2.43;;;2.23;;
8319;SDS011;4197;42.130;24.746;2023-11-19T03:43:17;7.07;;;2.70;;
8319;SDS011;4197;42.130;24.746;2023-11-19T03:45:46;3.00;;;2.73;;
8319;SDS011;4197;42.130;24.746;2023-11-19T03:48:15;3.50;;;2.60;;
8319;SDS011;4197;42.130;24.746;2023-11-19T03:50:45;2.33;;;2.13;;
8319;SDS011;4197;42.130;24.746;2023-11-19T03:53:13;2.60;;;2.40;;
8319;SDS011;4197;42.130;24.746;2023-11-19T03:55:41;3.03;;;2.20;;
8319;SDS011;4197;42.130;24.746;2023-11-19T03:58:10;2.47;;;2.00;;
8319;SDS011;4197;42.130;24.746;2023-11-19T04:00:38;2.50;;;2.30;;
8319;SDS011;4197;42.130;24.746;2023-11-19T04:03:07;2.90;;;2.70;;
8319;SDS011;4197;42.130;24.746;2023-11-19T04:05:35;2.67;;;2.23;;
8319;SDS011;4197;42.130;24.746;2023-11-19T04:08:05;3.70;;;2.43;;
8319;SDS011;4197;42.130;24.746;2023-11-19T04:10:33;2.37;;;2.17;;
8319;SDS011;4197;42.130;24.746;2023-11-19T04:13:01;2.30;;;2.10;;
8319;SDS011;4197;42.130;24.746;2023-11-19T04:15:29;2.97;;;2.50;;
8319;SDS011;4197;42.130;24.746;2023-11-19T04:17:58;2.60;;;2.40;;
8319;SDS011;4197;42.130;24.746;2023-11-19T04:20:27;2.80;;;2.50;;
8319;SDS011;4197;42.130;24.746;2023-11-19T04:22:55;2.70;;;2.37;;
8319;SDS011;4197;42.130;24.746;2023-11-19T04:25:25;5.77;;;2.50;;
8319;SDS011;4197;42.130;24.746;2023-11-19T04:27:53;2.87;;;2.30;;
8319;SDS011;4197;42.130;24.746;2023-11-19T04:30:22;2.97;;;2.60;;
8319;SDS011;4197;42.130;24.746;2023-11-19T04:32:50;3.93;;;3.00;;
8319;SDS011;4197;42.130;24.746;2023-11-19T04:35:18;3.40;;;2.47;;
8319;SDS011;4197;42.130;24.746;2023-11-19T04:37:46;5.63;;;3.27;;
8319;SDS011;4197;42.130;24.746;2023-11-19T04:40:15;4.13;;;2.70;;
8319;SDS011;4197;42.130;24.746;2023-11-19T04:42:47;3.30;;;2.63;;
8319;SDS011;4197;42.130;24.746;2023-11-19T04:45:15;2.80;;;2.50;;
8319;SDS011;4197;42.130;24.746;2023-11-19T04:47:43;2.90;;;2.60;;
8319;SDS011;4197;42.130;24.746;2023-11-19T04:50:12;4.57;;;2.17;;
8319;SDS011;4197;42.130;24.746;2023-11-19T04:52:40;2.50;;;2.20;;
8319;SDS011;4197;42.130;24.746;2023-11-19T04:55:08;3.03;;;2.47;;
8319;SDS011;4197;42.130;24.746;2023-11-19T04:57:39;4.77;;;2.70;;
8319;SDS011;4197;42.130;24.746;2023-11-19T05:00:09;2.40;;;2.20;;
8319;SDS011;4197;42.130;24.746;2023-11-19T05:02:41;2.60;;;2.40;;
8319;SDS011;4197;42.130;24.746;2023-11-19T05:05:10;4.17;;;2.73;;
8319;SDS011;4197;42.130;24.746;2023-11-19T05:07:38;4.07;;;3.03;;
8319;SDS011;4197;42.130;24.746;2023-11-19T05:10:07;2.97;;;2.60;;
8319;SDS011;4197;42.130;24.746;2023-11-19T05:12:36;2.70;;;2.43;;
8319;SDS011;4197;42.130;24.746;2023-11-19T05:15:06;2.30;;;2.10;;
8319;SDS011;4197;42.130;24.746;2023-11-19T05:17:36;3.93;;;2.60;;
8319;SDS011;4197;42.130;24.746;2023-11-19T05:20:05;2.93;;;2.20;;
8319;SDS011;4197;42.130;24.746;2023-11-19T05:22:40;3.33;;;2.50;;
8319;SDS011;4197;42.130;24.746;2023-11-19T05:25:09;3.07;;;2.77;;
8319;SDS011;4197;42.130;24.746;2023-11-19T05:27:38;2.93;;;2.63;;
8319;SDS011;4197;42.130;24.746;2023-11-19T05:30:07;3.17;;;2.87;;
8319;SDS011;4197;42.130;24.746;2023-11-19T05:32:39;3.80;;;3.00;;
8319;SDS011;4197;42.130;24.746;2023-11-19T05:35:07;4.20;;;3.23;;
8319;SDS011;4197;42.130;24.746;2023-11-19T05:37:36;3.50;;;2.70;;
8319;SDS011;4197;42.130;24.746;2023-11-19T05:40:05;3.13;;;2.60;;
8319;SDS011;4197;42.130;24.746;2023-11-19T05:42:42;2.43;;;2.13;;
8319;SDS011;4197;42.130;24.746;2023-11-19T05:45:11;2.70;;;2.50;;
8319;SDS011;4197;42.130;24.746;2023-11-19T05:47:41;3.10;;;2.80;;
8319;SDS011;4197;42.130;24.746;2023-11-19T05:50:10;2.77;;;2.50;;
8319;SDS011;4197;42.130;24.746;2023-11-19T05:52:39;4.37;;;2.73;;
8319;SDS011;4197;42.130;24.746;2023-11-19T05:55:07;2.87;;;2.60;;
8319;SDS011;4197;42.130;24.746;2023-11-19T05:57:37;4.10;;;3.10;;
8319;SDS011;4197;42.130;24.746;2023-11-19T06:00:10;2.50;;;2.30;;
8319;SDS011;4197;42.130;24.746;2023-11-19T06:02:41;4.33;;;2.60;;
8319;SDS011;4197;42.130;24.746;2023-11-19T06:05:10;4.30;;;3.47;;
8319;SDS011;4197;42.130;24.746;2023-11-19T06:07:38;2.97;;;2.67;;
8319;SDS011;4197;42.130;24.746;2023-11-19T06:10:08;3.83;;;2.80;;
8319;SDS011;4197;42.130;24.746;2023-11-19T06:12:37;4.27;;;2.57;;
8319;SDS011;4197;42.130;24.746;2023-11-19T06:15:08;2.13;;;1.93;;
8319;SDS011;4197;42.130;24.746;2023-11-19T06:17:36;3.07;;;2.60;;
8319;SDS011;4197;42.130;24.746;2023-11-19T06:20:07;3.67;;;2.60;;
8319;SDS011;4197;42.130;24.746;2023-11-19T06:22:38;3.20;;;2.53;;
8319;SDS011;4197;42.130;24.746;2023-11-19T06:25:08;2.80;;;2.57;;
8319;SDS011;4197;42.130;24.746;2023-11-19T06:27:37;3.57;;;2.53;;
8319;SDS011;4197;42.130;24.746;2023-11-19T06:30:06;2.77;;;2.50;;
8319;SDS011;4197;42.130;24.746;2023-11-19T06:32:35;6.00;;;2.90;;
8319;SDS011;4197;42.130;24.746;2023-11-19T06:35:04;3.10;;;2.73;;
8319;SDS011;4197;42.130;24.746;2023-11-19T06:37:34;3.47;;;2.77;;
8319;SDS011;4197;42.130;24.746;2023-11-19T06:40:02;2.67;;;2.47;;
8319;SDS011;4197;42.130;24.746;2023-11-19T06:42:32;2.93;;;2.63;;
8319;SDS011;4197;42.130;24.746;2023-11-19T06:45:01;3.00;;;2.80;;
8319;SDS011;4197;42.130;24.746;2023-11-19T06:47:29;3.30;;;2.57;;
8319;SDS011;4197;42.130;24.746;2023-11-19T06:49:58;2.90;;;2.60;;
8319;SDS011;4197;42.130;24.746;2023-11-19T06:52:26;4.33;;;2.83;;
8319;SDS011;4197;42.130;24.746;2023-11-19T06:54:56;5.33;;;3.10;;
8319;SDS011;4197;42.130;24.746;2023-11-19T06:57:27;2.67;;;2.47;;
8319;SDS011;4197;42.130;24.746;2023-11-19T06:59:56;2.60;;;2.40;;
8319;SDS011;4197;42.130;24.746;2023-11-19T07:02:25;6.00;;;3.10;;
8319;SDS011;4197;42.130;24.746;2023-11-19T07:04:53;5.43;;;3.10;;
8319;SDS011;4197;42.130;24.746;2023-11-19T07:07:22;4.40;;;2.60;;
8319;SDS011;4197;42.130;24.746;2023-11-19T07:09:50;3.47;;;2.53;;
8319;SDS011;4197;42.130;24.746;2023-11-19T07:12:20;4.63;;;3.07;;
8319;SDS011;4197;42.130;24.746;2023-11-19T07:14:48;2.60;;;2.30;;
8319;SDS011;4197;42.130;24.746;2023-11-19T07:17:17;2.53;;;2.33;;
8319;SDS011;4197;42.130;24.746;2023-11-19T07:19:46;6.10;;;2.20;;
8319;SDS011;4197;42.130;24.746;2023-11-19T07:22:14;3.13;;;2.30;;
8319;SDS011;4197;42.130;24.746;2023-11-19T07:24:43;2.63;;;2.43;;
8319;SDS011;4197;42.130;24.746;2023-11-19T07:27:11;2.50;;;2.17;;
8319;SDS011;4197;42.130;24.746;2023-11-19T07:29:42;3.37;;;2.50;;
8319;SDS011;4197;42.130;24.746;2023-11-19T07:32:11;3.37;;;2.70;;
8319;SDS011;4197;42.130;24.746;2023-11-19T07:34:41;2.80;;;2.40;;
8319;SDS011;4197;42.130;24.746;2023-11-19T07:37:09;7.90;;;3.57;;
8319;SDS011;4197;42.130;24.746;2023-11-19T07:39:37;2.93;;;2.60;;
8319;SDS011;4197;42.130;24.746;2023-11-19T07:42:08;3.00;;;2.50;;
8319;SDS011;4197;42.130;24.746;2023-11-19T07:44:36;2.67;;;2.37;;
8319;SDS011;4197;42.130;24.746;2023-11-19T07:47:08;3.27;;;2.60;;
8319;SDS011;4197;42.130;24.746;2023-11-19T08:21:38;3.17;;;2.60;;
8319;SDS011;4197;42.130;24.746;2023-11-19T08:24:11;2.87;;;2.50;;
8319;SDS011;4197;42.130;24.746;2023-11-19T09:01:47;2.80;;;2.13;;
8319;SDS011;4197;42.130;24.746;2023-11-19T09:04:20;2.93;;;2.20;;
8319;SDS011;4197;42.130;24.746;2023-11-19T09:07:22;4.30;;;2.87;;
8319;SDS011;4197;42.130;24.746;2023-11-19T09:13:09;2.90;;;1.93;;
8319;SDS011;4197;42.130;24.746;2023-11-19T09:28:08;3.67;;;1.77;;
8319;SDS011;4197;42.130;24.746;2023-11-19T09:30:44;2.83;;;2.40;;
8319;SDS011;4197;42.130;24.746;2023-11-19T09:33:23;2.17;;;1.97;;
8319;SDS011;4197;42.130;24.746;2023-11-19T09:36:00;2.87;;;2.30;;
8319;SDS011;4197;42.130;24.746;2023-11-19T09:38:41;2.20;;;2.00;;
8319;SDS011;4197;42.130;24.746;2023-11-19T10:05:34;3.00;;;2.40;;
8319;SDS011;4197;42.130;24.746;2023-11-19T10:08:04;3.93;;;2.60;;
8319;SDS011;4197;42.130;24.746;2023-11-19T10:10:34;3.13;;;2.70;;
8319;SDS011;4197;42.130;24.746;2023-11-19T10:13:03;2.90;;;2.50;;
8319;SDS011;4197;42.130;24.746;2023-11-19T10:15:33;2.73;;;2.43;;
8319;SDS011;4197;42.130;24.746;2023-11-19T10:18:04;3.00;;;2.30;;
8319;SDS011;4197;42.130;24.746;2023-11-19T10:20:36;2.30;;;2.10;;
8319;SDS011;4197;42.130;24.746;2023-11-19T10:23:06;2.80;;;2.50;;
8319;SDS011;4197;42.130;24.746;2023-11-19T10:25:34;4.23;;;2.50;;
8319;SDS011;4197;42.130;24.746;2023-11-19T10:28:03;3.87;;;3.00;;
8319;SDS011;4197;42.130;24.746;2023-11-19T10:30:31;4.53;;;2.40;;
8319;SDS011;4197;42.130;24.746;2023-11-19T10:33:04;2.80;;;2.50;;
8319;SDS011;4197;42.130;24.746;2023-11-19T10:35:33;2.93;;;2.70;;
8319;SDS011;4197;42.130;24.746;2023-11-19T10:38:13;2.83;;;2.57;;
8319;SDS011;4197;42.130;24.746;2023-11-19T10:40:42;2.87;;;2.20;;
8319;SDS011;4197;42.130;24.746;2023-11-19T10:43:11;4.53;;;2.77;;
8319;SDS011;4197;42.130;24.746;2023-11-19T10:45:40;3.07;;;2.73;;
8319;SDS011;4197;42.130;24.746;2023-11-19T10:48:09;4.73;;;2.70;;
8319;SDS011;4197;42.130;24.746;2023-11-19T10:50:40;2.50;;;2.30;;
8319;SDS011;4197;42.130;24.746;2023-11-19T10:53:11;3.23;;;2.60;;
8319;SDS011;4197;42.130;24.746;2023-11-19T10:55:40;4.67;;;2.90;;
8319;SDS011;4197;42.130;24.746;2023-11-19T10:58:09;2.40;;;2.20;;
8319;SDS011;4197;42.130;24.746;2023-11-19T11:00:38;3.30;;;2.23;;
8319;SDS011;4197;42.130;24.746;2023-11-19T11:03:15;2.47;;;2.27;;
8319;SDS011;4197;42.130;24.746;2023-11-19T11:05:46;6.97;;;2.67;;
8319;SDS011;4197;42.130;24.746;2023-11-19T11:08:16;3.07;;;2.70;;
8319;SDS011;4197;42.130;24.746;2023-11-19T11:10:47;2.97;;;2.63;;
8319;SDS011;4197;42.130;24.746;2023-11-19T11:13:23;2.43;;;2.17;;
8319;SDS011;4197;42.130;24.746;2023-11-19T11:15:55;2.90;;;2.70;;
8319;SDS011;4197;42.130;24.746;2023-11-19T11:18:25;2.70;;;2.47;;
8319;SDS011;4197;42.130;24.746;2023-11-19T11:20:55;3.03;;;2.80;;
8319;SDS011;4197;42.130;24.746;2023-11-19T11:26:40;3.50;;;2.37;;
8319;SDS011;4197;42.130;24.746;2023-11-19T11:29:31;3.57;;;2.70;;
8319;SDS011;4197;42.130;24.746;2023-11-19T11:32:08;3.10;;;2.63;;
8319;SDS011;4197;42.130;24.746;2023-11-19T11:34:55;3.37;;;3.07;;
8319;SDS011;4197;42.130;24.746;2023-11-19T11:37:30;3.43;;;3.10;;
8319;SDS011;4197;42.130;24.746;2023-11-19T11:40:01;3.10;;;2.70;;
8319;SDS011;4197;42.130;24.746;2023-11-19T11:42:38;3.40;;;2.47;;
8319;SDS011;4197;42.130;24.746;2023-11-19T11:45:08;3.50;;;2.83;;
8319;SDS011;4197;42.130;24.746;2023-11-19T11:50:36;3.00;;;2.43;;
8319;SDS011;4197;42.130;24.746;2023-11-19T11:53:19;2.60;;;2.40;;
8319;SDS011;4197;42.130;24.746;2023-11-19T11:55:57;2.63;;;2.43;;
8319;SDS011;4197;42.130;24.746;2023-11-19T11:58:31;3.80;;;2.40;;
8319;SDS011;4197;42.130;24.746;2023-11-19T12:01:14;2.87;;;2.57;;
8319;SDS011;4197;42.130;24.746;2023-11-19T12:03:48;2.50;;;2.30;;
8319;SDS011;4197;42.130;24.746;2023-11-19T12:06:20;4.17;;;3.10;;
8319;SDS011;4197;42.130;24.746;2023-11-19T12:08:49;3.23;;;2.93;;
8319;SDS011;4197;42.130;24.746;2023-11-19T12:11:19;3.03;;;2.40;;
8319;SDS011;4197;42.130;24.746;2023-11-19T12:13:58;3.60;;;3.30;;
8319;SDS011;4197;42.130;24.746;2023-11-19T12:16:29;4.20;;;3.40;;
8319;SDS011;4197;42.130;24.746;2023-11-19T12:19:02;4.90;;;3.20;;
8319;SDS011;4197;42.130;24.746;2023-11-19T12:21:32;3.47;;;3.17;;
8319;SDS011;4197;42.130;24.746;2023-11-19T12:24:04;4.17;;;3.17;;
8319;SDS011;4197;42.130;24.746;2023-11-19T12:26:35;3.67;;;3.23;;
8319;SDS011;4197;42.130;24.746;2023-11-19T12:29:07;4.20;;;3.80;;
8319;SDS011;4197;42.130;24.746;2023-11-19T12:31:36;3.33;;;3.03;;
8319;SDS011;4197;42.130;24.746;2023-11-19T12:34:06;5.73;;;3.10;;
8319;SDS011;4197;42.130;24.746;2023-11-19T12:36:41;3.53;;;3.20;;
8319;SDS011;4197;42.130;24.746;2023-11-19T12:39:10;3.97;;;3.27;;
8319;SDS011;4197;42.130;24.746;2023-11-19T12:44:28;3.90;;;3.57;;
8319;SDS011;4197;42.130;24.746;2023-11-19T12:47:00;4.33;;;3.90;;
8319;SDS011;4197;42.130;24.746;2023-11-19T12:49:29;5.53;;;4.00;;
8319;SDS011;4197;42.130;24.746;2023-11-19T12:51:58;4.93;;;4.13;;
8319;SDS011;4197;42.130;24.746;2023-11-19T12:54:33;4.30;;;3.90;;
8319;SDS011;4197;42.130;24.746;2023-11-19T12:57:02;4.07;;;3.67;;
8319;SDS011;4197;42.130;24.746;2023-11-19T12:59:33;5.67;;;3.40;;
8319;SDS011;4197;42.130;24.746;2023-11-19T13:02:01;4.10;;;3.70;;
8319;SDS011;4197;42.130;24.746;2023-11-19T13:04:34;3.90;;;3.60;;
8319;SDS011;4197;42.130;24.746;2023-11-19T13:07:03;5.03;;;4.03;;
8319;SDS011;4197;42.130;24.746;2023-11-19T13:09:32;5.20;;;3.53;;
8319;SDS011;4197;42.130;24.746;2023-11-19T13:12:11;4.10;;;3.70;;
8319;SDS011;4197;42.130;24.746;2023-11-19T13:14:42;4.30;;;3.43;;
8319;SDS011;4197;42.130;24.746;2023-11-19T13:17:15;3.70;;;3.40;;
8319;SDS011;4197;42.130;24.746;2023-11-19T13:19:43;5.23;;;3.97;;
8319;SDS011;4197;42.130;24.746;2023-11-19T13:22:14;4.83;;;4.17;;
8319;SDS011;4197;42.130;24.746;2023-11-19T13:24:42;4.47;;;3.63;;
8319;SDS011;4197;42.130;24.746;2023-11-19T13:27:11;4.83;;;3.80;;
8319;SDS011;4197;42.130;24.746;2023-11-19T13:29:39;3.87;;;3.47;;
8319;SDS011;4197;42.130;24.746;2023-11-19T13:32:09;7.13;;;4.27;;
8319;SDS011;4197;42.130;24.746;2023-11-19T13:34:37;5.07;;;3.53;;
8319;SDS011;4197;42.130;24.746;2023-11-19T13:37:06;3.77;;;3.40;;
8319;SDS011;4197;42.130;24.746;2023-11-19T13:39:34;4.10;;;3.67;;
8319;SDS011;4197;42.130;24.746;2023-11-19T13:42:02;4.17;;;3.77;;
8319;SDS011;4197;42.130;24.746;2023-11-19T13:44:34;4.90;;;3.67;;
8319;SDS011;4197;42.130;24.746;2023-11-19T13:47:02;3.87;;;3.47;;
8319;SDS011;4197;42.130;24.746;2023-11-19T13:49:32;3.83;;;3.43;;
8319;SDS011;4197;42.130;24.746;2023-11-19T13:52:00;5.43;;;3.67;;
8319;SDS011;4197;42.130;24.746;2023-11-19T13:54:29;5.60;;;3.50;;
8319;SDS011;4197;42.130;24.746;2023-11-19T13:56:57;4.10;;;3.50;;
8319;SDS011;4197;42.130;24.746;2023-11-19T13:59:27;3.87;;;3.53;;
8319;SDS011;4197;42.130;24.746;2023-11-19T14:01:55;5.67;;;3.80;;
8319;SDS011;4197;42.130;24.746;2023-11-19T14:04:24;4.50;;;3.90;;
8319;SDS011;4197;42.130;24.746;2023-11-19T14:06:54;5.67;;;3.80;;
8319;SDS011;4197;42.130;24.746;2023-11-19T14:09:22;5.43;;;4.00;;
8319;SDS011;4197;42.130;24.746;2023-11-19T14:11:51;4.83;;;3.50;;
8319;SDS011;4197;42.130;24.746;2023-11-19T14:14:19;4.40;;;4.00;;
8319;SDS011;4197;42.130;24.746;2023-11-19T14:16:48;5.07;;;4.23;;
8319;SDS011;4197;42.130;24.746;2023-11-19T14:19:16;4.03;;;3.63;;
8319;SDS011;4197;42.130;24.746;2023-11-19T14:21:44;5.23;;;4.07;;
8319;SDS011;4197;42.130;24.746;2023-11-19T14:24:15;4.47;;;3.87;;
8319;SDS011;4197;42.130;24.746;2023-11-19T14:26:45;4.07;;;3.67;;
8319;SDS011;4197;42.130;24.746;2023-11-19T14:29:14;4.40;;;4.00;;
8319;SDS011;4197;42.130;24.746;2023-11-19T14:31:42;4.43;;;4.00;;
8319;SDS011;4197;42.130;24.746;2023-11-19T14:34:10;4.07;;;3.67;;
8319;SDS011;4197;42.130;24.746;2023-11-19T14:36:38;5.40;;;4.30;;
8319;SDS011;4197;42.130;24.746;2023-11-19T14:39:07;8.13;;;4.27;;
8319;SDS011;4197;42.130;24.746;2023-11-19T14:41:37;4.83;;;3.80;;
8319;SDS011;4197;42.130;24.746;2023-11-19T14:44:05;4.77;;;4.30;;
8319;SDS011;4197;42.130;24.746;2023-11-19T14:46:33;6.40;;;5.23;;
8319;SDS011;4197;42.130;24.746;2023-11-19T14:49:02;9.13;;;6.30;;
8319;SDS011;4197;42.130;24.746;2023-11-19T14:51:30;5.83;;;4.50;;
8319;SDS011;4197;42.130;24.746;2023-11-19T14:53:59;4.53;;;4.03;;
8319;SDS011;4197;42.130;24.746;2023-11-19T14:56:27;6.17;;;3.80;;
8319;SDS011;4197;42.130;24.746;2023-11-19T14:58:57;4.43;;;3.63;;
8319;SDS011;4197;42.130;24.746;2023-11-19T15:01:26;5.77;;;4.30;;
8319;SDS011;4197;42.130;24.746;2023-11-19T15:03:55;7.37;;;4.83;;
8319;SDS011;4197;42.130;24.746;2023-11-19T15:06:30;5.03;;;3.80;;
8319;SDS011;4197;42.130;24.746;2023-11-19T15:09:00;5.03;;;4.40;;
8319;SDS011;4197;42.130;24.746;2023-11-19T15:11:29;6.37;;;4.53;;
8319;SDS011;4197;42.130;24.746;2023-11-19T15:13:58;4.70;;;4.10;;
8319;SDS011;4197;42.130;24.746;2023-11-19T15:16:27;5.50;;;4.50;;
8319;SDS011;4197;42.130;24.746;2023-11-19T15:18:59;6.00;;;3.93;;
8319;SDS011;4197;42.130;24.746;2023-11-19T15:21:30;3.90;;;3.60;;
8319;SDS011;4197;42.130;24.746;2023-11-19T15:23:59;6.40;;;4.63;;
8319;SDS011;4197;42.130;24.746;2023-11-19T15:26:28;4.97;;;4.13;;
8319;SDS011;4197;42.130;24.746;2023-11-19T15:28:57;5.17;;;4.07;;
8319;SDS011;4197;42.130;24.746;2023-11-19T15:31:26;5.30;;;4.73;;
8319;SDS011;4197;42.130;24.746;2023-11-19T15:33:55;4.60;;;4.03;;
8319;SDS011;4197;42.130;24.746;2023-11-19T15:36:23;5.30;;;4.73;;
8319;SDS011;4197;42.130;24.746;2023-11-19T15:38:51;6.53;;;4.50;;
8319;SDS011;4197;42.130;24.746;2023-11-19T15:41:20;4.83;;;4.30;;
8319;SDS011;4197;42.130;24.746;2023-11-19T15:43:48;5.27;;;4.70;;
8319;SDS011;4197;42.130;24.746;2023-11-19T15:46:18;4.80;;;4.13;;
8319;SDS011;4197;42.130;24.746;2023-11-19T15:48:47;5.07;;;4.57;;
8319;SDS011;4197;42.130;24.746;2023-11-19T15:51:15;6.43;;;4.73;;
8319;SDS011;4197;42.130;24.746;2023-11-19T15:53:44;6.23;;;4.93;;
8319;SDS011;4197;42.130;24.746;2023-11-19T15:56:12;5.80;;;4.23;;
8319;SDS011;4197;42.130;24.746;2023-11-19T15:58:41;6.27;;;4.63;;
8319;SDS011;4197;42.130;24.746;2023-11-19T16:01:09;13.87;;;9.30;;
8319;SDS011;4197;42.130;24.746;2023-11-19T16:03:40;6.70;;;4.97;;
8319;SDS011;4197;42.130;24.746;2023-11-19T16:06:12;5.20;;;4.50;;
8319;SDS011;4197;42.130;24.746;2023-11-19T16:08:41;7.10;;;3.83;;
8319;SDS011;4197;42.130;24.746;2023-11-19T16:11:09;5.00;;;4.10;;
8319;SDS011;4197;42.130;24.746;2023-11-19T16:13:40;5.93;;;4.07;;
8319;SDS011;4197;42.130;24.746;2023-11-19T16:16:09;8.70;;;4.77;;
8319;SDS011;4197;42.130;24.746;2023-11-19T16:18:37;4.80;;;3.97;;
8319;SDS011;4197;42.130;24.746;2023-11-19T16:21:07;3.83;;;3.47;;
8319;SDS011;4197;42.130;24.746;2023-11-19T16:23:36;15.23;;;4.00;;
8319;SDS011;4197;42.130;24.746;2023-11-19T16:26:04;7.67;;;4.47;;
8319;SDS011;4197;42.130;24.746;2023-11-19T16:28:32;6.63;;;5.13;;
8319;SDS011;4197;42.130;24.746;2023-11-19T16:31:01;4.20;;;3.77;;
8319;SDS011;4197;42.130;24.746;2023-11-19T16:33:30;4.53;;;3.80;;
8319;SDS011;4197;42.130;24.746;2023-11-19T16:36:01;4.87;;;4.33;;
8319;SDS011;4197;42.130;24.746;2023-11-19T16:38:32;4.23;;;3.57;;
8319;SDS011;4197;42.130;24.746;2023-11-19T16:41:00;5.53;;;3.97;;
8319;SDS011;4197;42.130;24.746;2023-11-19T16:43:31;3.80;;;3.40;;
8319;SDS011;4197;42.130;24.746;2023-11-19T16:45:59;3.67;;;3.27;;
8319;SDS011;4197;42.130;24.746;2023-11-19T16:48:28;4.13;;;3.43;;
8319;SDS011;4197;42.130;24.746;2023-11-19T16:50:56;4.30;;;3.57;;
8319;SDS011;4197;42.130;24.746;2023-11-19T16:53:27;5.13;;;3.73;;
8319;SDS011;4197;42.130;24.746;2023-11-19T16:55:57;3.93;;;3.23;;
8319;SDS011;4197;42.130;24.746;2023-11-19T16:58:25;4.83;;;3.70;;
8319;SDS011;4197;42.130;24.746;2023-11-19T17:00:53;3.80;;;2.97;;
8319;SDS011;4197;42.130;24.746;2023-11-19T17:03:24;4.70;;;3.73;;
8319;SDS011;4197;42.130;24.746;2023-11-19T17:05:52;4.10;;;3.67;;
8319;SDS011;4197;42.130;24.746;2023-11-19T17:08:21;8.90;;;4.07;;
8319;SDS011;4197;42.130;24.746;2023-11-19T17:10:50;5.30;;;4.10;;
8319;SDS011;4197;42.130;24.746;2023-11-19T17:13:21;4.00;;;3.60;;
8319;SDS011;4197;42.130;24.746;2023-11-19T17:15:49;3.73;;;3.30;;